createdAt,value
2019-01-19T00:01:25.588Z,-4.23
2019-01-19T00:04:38.418Z,-4.30
2019-01-19T00:07:46.797Z,-4.27
2019-01-19T00:10:51.994Z,-4.32
2019-01-19T00:14:09.355Z,-4.28
2019-01-19T00:17:32.962Z,-4.26
2019-01-19T00:20:37.664Z,-4.27
2019-01-19T00:23:33.529Z,-4.31
2019-01-19T00:27:07.217Z,-4.30
2019-01-19T00:30:20.948Z,-4.26
2019-01-19T00:33:23.926Z,-4.25
2019-01-19T00:36:18.870Z,-4.25
2019-01-19T00:39:31.040Z,-4.25
2019-01-19T00:42:13.322Z,-4.21
2019-01-19T00:45:07.955Z,-4.22
2019-01-19T00:48:25.608Z,-4.31
2019-01-19T00:51:33.751Z,-4.38
2019-01-19T00:54:18.684Z,-4.31
2019-01-19T00:57:08.832Z,-4.31
2019-01-19T00:59:41.259Z,-4.35
2019-01-19T01:02:49.343Z,-4.38
2019-01-19T01:05:48.515Z,-4.39
2019-01-19T01:08:35.092Z,-4.51
2019-01-19T01:11:31.801Z,-4.60
2019-01-19T01:14:46.422Z,-4.67
2019-01-19T01:17:26.967Z,-4.60
2019-01-19T01:20:37.732Z,-4.43
2019-01-19T01:23:30.825Z,-4.32
2019-01-19T01:26:54.141Z,-4.27
2019-01-19T01:29:59.680Z,-4.22
2019-01-19T01:33:11.707Z,-4.30
2019-01-19T01:36:08.740Z,-4.38
2019-01-19T01:39:16.693Z,-4.24
2019-01-19T01:42:37.934Z,-4.12
2019-01-19T01:45:49.416Z,-4.08
2019-01-19T01:48:36.044Z,-4.05
2019-01-19T01:51:45.188Z,-3.96
2019-01-19T01:54:36.022Z,-3.96
2019-01-19T01:57:10.476Z,-3.91
2019-01-19T01:59:56.209Z,-3.92
2019-01-19T02:02:55.972Z,-3.92
2019-01-19T02:05:58.094Z,-3.93
2019-01-19T02:09:11.775Z,-4.11
2019-01-19T02:12:54.667Z,-4.27
2019-01-19T02:15:57.955Z,-4.42
2019-01-19T02:18:52.930Z,-4.33
2019-01-19T02:21:48.330Z,-4.32
2019-01-19T02:24:49.124Z,-4.27
2019-01-19T02:28:07.305Z,-4.23
2019-01-19T02:30:53.885Z,-4.26
2019-01-19T02:34:00.355Z,-4.26
2019-01-19T02:37:14.785Z,-4.26
2019-01-19T02:40:04.240Z,-4.33
2019-01-19T02:42:57.514Z,-4.44
2019-01-19T02:46:16.316Z,-4.49
2019-01-19T02:49:29.153Z,-4.38
2019-01-19T02:52:38.621Z,-4.25
2019-01-19T02:55:44.342Z,-4.23
2019-01-19T02:58:57.122Z,-4.26
2019-01-19T03:02:01.814Z,-4.33
2019-01-19T03:04:36.455Z,-4.40
2019-01-19T03:07:26.964Z,-4.43
2019-01-19T03:10:11.026Z,-4.35
2019-01-19T03:13:29.390Z,-4.28
2019-01-19T03:16:40.940Z,-4.16
2019-01-19T03:19:58.777Z,-4.09
2019-01-19T03:22:56.720Z,-3.97
2019-01-19T03:25:38.823Z,-3.92
2019-01-19T03:28:22.914Z,-3.83
2019-01-19T03:31:46.901Z,-3.73
2019-01-19T03:34:32.933Z,-3.69
2019-01-19T03:37:48.213Z,-3.70
2019-01-19T03:41:02.137Z,-3.67
2019-01-19T03:44:05.605Z,-3.69
2019-01-19T03:47:21.016Z,-3.62
2019-01-19T03:50:07.383Z,-3.59
2019-01-19T03:53:05.921Z,-3.69
2019-01-19T03:56:20.411Z,-3.76
2019-01-19T03:58:58.296Z,-3.68
2019-01-19T04:02:06.546Z,-3.55
2019-01-19T04:05:20.456Z,-3.66
2019-01-19T04:08:15.294Z,-3.75
2019-01-19T04:11:39.079Z,-3.70
2019-01-19T04:14:54.860Z,-3.56
2019-01-19T04:17:59.053Z,-3.47
2019-01-19T04:21:02.471Z,-3.42
2019-01-19T04:23:30.327Z,-3.36
2019-01-19T04:26:06.039Z,-3.29
2019-01-19T04:28:33.903Z,-3.19
2019-01-19T04:31:01.736Z,-3.16
2019-01-19T04:33:30.970Z,-3.11
2019-01-19T04:35:58.713Z,-3.07
2019-01-19T04:38:26.302Z,-3.10
2019-01-19T04:40:53.982Z,-3.07
2019-01-19T04:43:21.685Z,-3.06
2019-01-19T04:45:49.458Z,-2.98
2019-01-19T04:48:19.260Z,-2.98
2019-01-19T04:50:47.032Z,-2.96
2019-01-19T04:53:14.704Z,-3.08
2019-01-19T04:55:42.401Z,-3.11
2019-01-19T04:58:10.089Z,-3.10
2019-01-19T05:00:37.896Z,-3.10
2019-01-19T05:03:05.652Z,-3.14
2019-01-19T05:05:33.337Z,-3.06
2019-01-19T05:08:01.119Z,-3.03
2019-01-19T05:10:28.830Z,-3.07
2019-01-19T05:12:56.518Z,-2.99
2019-01-19T05:15:24.191Z,-2.92
2019-01-19T05:17:52.076Z,-2.79
2019-01-19T05:20:19.799Z,-2.83
2019-01-19T05:22:47.447Z,-2.81
2019-01-19T05:25:15.159Z,-2.74
2019-01-19T05:27:42.887Z,-2.64
2019-01-19T05:30:18.196Z,-2.64
2019-01-19T05:32:46.092Z,-2.64
2019-01-19T05:35:14.095Z,-2.53
2019-01-19T05:37:41.695Z,-2.50
2019-01-19T05:40:10.205Z,-2.44
2019-01-19T05:42:37.975Z,-2.55
2019-01-19T05:45:06.800Z,-2.66
2019-01-19T05:47:34.426Z,-2.70
2019-01-19T05:50:02.051Z,-2.67
2019-01-19T05:52:29.668Z,-2.61
2019-01-19T05:54:57.249Z,-2.58
2019-01-19T05:57:24.899Z,-2.56
2019-01-19T05:59:52.540Z,-2.61
2019-01-19T06:02:22.046Z,-2.62
2019-01-19T06:04:49.730Z,-2.57
2019-01-19T06:07:17.325Z,-2.50
2019-01-19T06:09:45.043Z,-2.41
2019-01-19T06:12:12.665Z,-2.34
2019-01-19T06:14:40.303Z,-2.35
2019-01-19T06:17:07.899Z,-2.42
2019-01-19T06:19:35.785Z,-2.32
2019-01-19T06:22:03.706Z,-2.28
2019-01-19T06:24:31.359Z,-2.25
2019-01-19T06:26:59.096Z,-2.27
2019-01-19T06:29:26.801Z,-2.23
2019-01-19T06:31:54.389Z,-2.22
2019-01-19T06:34:22.083Z,-2.20
2019-01-19T06:36:54.923Z,-2.19
2019-01-19T06:39:19.275Z,-2.20
2019-01-19T06:41:46.997Z,-2.22
2019-01-19T06:44:14.609Z,-2.19
2019-01-19T06:46:44.074Z,-2.12
2019-01-19T06:49:11.704Z,-2.08
2019-01-19T06:51:39.368Z,-2.05
2019-01-19T06:54:07.245Z,-2.08
2019-01-19T06:56:34.841Z,-2.18
2019-01-19T06:59:04.809Z,-2.26
2019-01-19T07:01:32.505Z,-2.33
2019-01-19T07:04:00.215Z,-2.28
2019-01-19T07:06:27.752Z,-2.26
2019-01-19T07:08:55.430Z,-2.10
2019-01-19T07:11:23.188Z,-2.03
2019-01-19T07:13:50.945Z,-2.08
2019-01-19T07:16:18.563Z,-2.13
2019-01-19T07:18:46.269Z,-2.21
2019-01-19T07:21:13.882Z,-2.13
2019-01-19T07:23:41.606Z,-2.07
2019-01-19T07:26:09.248Z,-2.10
2019-01-19T07:28:36.880Z,-2.09
2019-01-19T07:31:04.474Z,-2.04
2019-01-19T07:33:33.988Z,-2.03
2019-01-19T07:36:01.740Z,-2.01
2019-01-19T07:38:29.551Z,-1.94
2019-01-19T07:40:57.345Z,-1.88
2019-01-19T07:43:25.511Z,-1.92
2019-01-19T07:45:53.290Z,-1.88
2019-01-19T07:48:21.103Z,-1.84
2019-01-19T07:50:48.812Z,-1.81
2019-01-19T07:53:16.457Z,-1.74
2019-01-19T07:55:44.018Z,-1.69
2019-01-19T07:58:11.693Z,-1.65
2019-01-19T08:00:39.531Z,-1.66
2019-01-19T08:03:07.534Z,-1.72
2019-01-19T08:05:35.541Z,-1.68
2019-01-19T08:08:03.564Z,-1.68
2019-01-19T08:10:31.368Z,-1.60
2019-01-19T08:12:59.313Z,-1.54
2019-01-19T08:15:27.619Z,-1.58
2019-01-19T08:17:57.676Z,-1.64
2019-01-19T08:20:25.546Z,-1.50
2019-01-19T08:22:53.528Z,-1.44
2019-01-19T08:25:21.496Z,-1.33
2019-01-19T08:27:49.761Z,-1.31
2019-01-19T08:30:20.108Z,-1.34
2019-01-19T08:32:49.831Z,-1.19
2019-01-19T08:35:18.239Z,-1.05
2019-01-19T08:37:46.619Z,-1.06
2019-01-19T08:40:16.893Z,-0.92
2019-01-19T08:42:49.742Z,-0.72
2019-01-19T08:45:18.288Z,-0.76
2019-01-19T08:47:46.488Z,-0.66
2019-01-19T08:50:14.678Z,-0.72
2019-01-19T08:52:43.666Z,-0.68
2019-01-19T08:55:11.606Z,-0.71
2019-01-19T08:57:40.507Z,-0.72
2019-01-19T09:00:11.986Z,-0.77
2019-01-19T09:02:40.055Z,-0.71
2019-01-19T09:05:08.712Z,-0.64
2019-01-19T09:07:36.765Z,-0.59
2019-01-19T09:10:06.238Z,-0.49
2019-01-19T09:12:34.169Z,-0.42
2019-01-19T09:15:02.015Z,-0.40
2019-01-19T09:17:30.037Z,-0.37
2019-01-19T09:19:58.126Z,-0.28
2019-01-19T09:22:26.040Z,-0.18
2019-01-19T09:24:54.221Z,-0.26
2019-01-19T09:27:22.089Z,-0.26
2019-01-19T09:29:50.302Z,-0.45
2019-01-19T09:32:18.428Z,-0.46
2019-01-19T09:34:46.819Z,-0.32
2019-01-19T09:37:14.668Z,-0.23
2019-01-19T09:39:42.647Z,-0.25
2019-01-19T09:42:10.477Z,-0.36
2019-01-19T09:44:38.586Z,-0.22
2019-01-19T09:47:06.574Z,-0.21
2019-01-19T09:49:34.899Z,-0.22
2019-01-19T09:52:02.690Z,-0.11
2019-01-19T09:54:35.383Z,-0.07
2019-01-19T09:57:03.366Z,0.13
2019-01-19T09:59:31.548Z,0.26
2019-01-19T10:02:02.275Z,0.07
2019-01-19T10:04:30.401Z,0.15
2019-01-19T10:07:00.943Z,0.19
2019-01-19T10:09:31.613Z,0.27
2019-01-19T10:11:59.635Z,0.30
2019-01-19T10:14:28.938Z,0.29
2019-01-19T10:16:57.068Z,0.39
2019-01-19T10:19:27.493Z,0.36
2019-01-19T10:21:58.564Z,0.25
2019-01-19T10:24:26.519Z,0.36
2019-01-19T10:26:54.688Z,0.39
2019-01-19T10:29:23.003Z,0.51
2019-01-19T10:31:50.926Z,0.57
2019-01-19T10:34:18.816Z,0.59
2019-01-19T10:36:46.597Z,0.42
2019-01-19T10:39:14.469Z,0.41
2019-01-19T10:41:42.666Z,0.62
2019-01-19T10:44:10.603Z,0.57
2019-01-19T10:46:38.646Z,0.63
2019-01-19T10:49:07.627Z,0.69
2019-01-19T10:51:35.607Z,0.76
2019-01-19T10:54:03.637Z,0.74
2019-01-19T10:56:31.532Z,0.60
2019-01-19T10:58:59.776Z,0.72
2019-01-19T11:01:27.727Z,0.63
2019-01-19T11:03:56.176Z,0.61
2019-01-19T11:06:24.359Z,0.68
2019-01-19T11:08:52.430Z,0.53
2019-01-19T11:11:20.309Z,0.61
2019-01-19T11:13:48.357Z,0.55
2019-01-19T11:16:16.680Z,0.46
2019-01-19T11:18:44.730Z,0.63
2019-01-19T11:21:12.707Z,0.62
2019-01-19T11:23:40.647Z,0.54
2019-01-19T11:26:08.617Z,0.53
2019-01-19T11:28:39.687Z,0.59
2019-01-19T11:31:07.688Z,0.67
2019-01-19T11:33:35.782Z,0.62
2019-01-19T11:36:04.079Z,0.68
2019-01-19T11:38:32.428Z,0.64
2019-01-19T11:41:01.976Z,0.59
2019-01-19T11:43:30.123Z,0.59
2019-01-19T11:45:58.149Z,0.57
2019-01-19T11:48:28.439Z,0.60
2019-01-19T11:50:56.659Z,0.70
2019-01-19T11:53:24.804Z,0.67
2019-01-19T11:55:52.979Z,0.71
2019-01-19T11:58:25.477Z,0.53
2019-01-19T12:00:53.448Z,0.64
2019-01-19T12:03:21.768Z,0.58
2019-01-19T12:05:49.940Z,0.73
2019-01-19T12:08:19.734Z,0.82
2019-01-19T12:10:47.894Z,0.84
2019-01-19T12:13:16.140Z,0.82
2019-01-19T12:15:44.290Z,0.68
2019-01-19T12:18:12.306Z,0.68
2019-01-19T12:20:45.480Z,0.60
2019-01-19T12:23:13.367Z,0.63
2019-01-19T12:25:41.301Z,0.67
2019-01-19T12:28:09.341Z,0.70
2019-01-19T12:30:37.234Z,0.78
2019-01-19T12:33:05.207Z,0.71
2019-01-19T12:35:33.157Z,0.74
2019-01-19T12:38:01.157Z,0.78
2019-01-19T12:40:29.323Z,0.66
2019-01-19T12:42:59.623Z,0.78
2019-01-19T12:45:38.863Z,0.76
2019-01-19T12:48:06.812Z,0.73
2019-01-19T12:50:34.822Z,0.80
2019-01-19T12:53:02.721Z,0.75
2019-01-19T12:55:30.780Z,0.72
2019-01-19T12:58:00.139Z,0.79
2019-01-19T13:00:28.501Z,0.74
2019-01-19T13:02:56.439Z,0.69
2019-01-19T13:05:30.697Z,0.67
2019-01-19T13:07:58.781Z,0.74
2019-01-19T13:10:49.182Z,0.73
2019-01-19T13:13:20.802Z,0.76
2019-01-19T13:16:29.132Z,0.80
2019-01-19T13:19:19.309Z,0.77
2019-01-19T13:22:18.916Z,0.88
2019-01-19T13:25:13.122Z,0.90
2019-01-19T13:28:18.102Z,0.81
2019-01-19T13:31:20.672Z,0.77
2019-01-19T13:34:25.751Z,0.86
2019-01-19T13:37:34.408Z,0.82
2019-01-19T13:40:16.952Z,0.77
2019-01-19T13:43:43.311Z,0.67
2019-01-19T13:46:27.503Z,0.77
2019-01-19T13:49:28.765Z,0.78
2019-01-19T13:52:07.933Z,0.78
2019-01-19T13:55:25.874Z,0.82
2019-01-19T13:58:24.475Z,0.80
2019-01-19T14:01:44.764Z,0.84
2019-01-19T14:04:33.156Z,0.83
2019-01-19T14:07:24.737Z,0.69
2019-01-19T14:10:40.246Z,0.68
2019-01-19T14:13:29.084Z,0.74
2019-01-19T14:16:40.291Z,0.68
2019-01-19T14:19:41.130Z,0.61
2019-01-19T14:22:40.260Z,0.60
2019-01-19T14:25:45.170Z,0.43
2019-01-19T14:28:57.656Z,0.26
2019-01-19T14:32:12.071Z,0.28
2019-01-19T14:35:18.666Z,0.30
2019-01-19T14:38:28.190Z,0.24
2019-01-19T14:41:46.824Z,0.28
2019-01-19T14:44:58.608Z,0.30
2019-01-19T14:48:07.453Z,0.28
2019-01-19T14:50:48.250Z,0.19
2019-01-19T14:53:44.112Z,0.15
2019-01-19T14:56:51.704Z,0.16
2019-01-19T15:00:01.552Z,0.17
2019-01-19T15:02:56.598Z,0.12
2019-01-19T15:05:40.183Z,0.12
2019-01-19T15:08:39.897Z,0.24
2019-01-19T15:11:44.842Z,0.22
2019-01-19T15:14:37.201Z,0.10
2019-01-19T15:17:59.072Z,0.08
2019-01-19T15:20:47.391Z,0.08
2019-01-19T15:24:00.237Z,0.07
2019-01-19T15:26:54.102Z,0.05
2019-01-19T15:29:47.032Z,0.05
2019-01-19T15:33:17.986Z,0.03
2019-01-19T15:36:12.570Z,0.03
2019-01-19T15:39:25.970Z,0.02
2019-01-19T15:42:24.403Z,-0.03
2019-01-19T15:45:52.625Z,0.07
2019-01-19T15:48:54.240Z,-0.01
2019-01-19T15:51:55.519Z,-0.08
2019-01-19T15:54:44.192Z,-0.03
2019-01-19T15:58:08.620Z,-0.04
2019-01-19T16:00:50.489Z,-0.06
2019-01-19T16:03:36.032Z,-0.17
2019-01-19T16:06:43.947Z,-0.20
2019-01-19T16:10:08.876Z,-0.12
2019-01-19T16:13:14.170Z,-0.10
2019-01-19T16:16:21.965Z,-0.12
2019-01-19T16:19:27.722Z,-0.06
2019-01-19T16:22:09.300Z,0.01
2019-01-19T16:25:19.415Z,-0.06
2019-01-19T16:28:29.498Z,-0.03
2019-01-19T16:31:27.804Z,0.17
2019-01-19T16:34:51.483Z,0.13
2019-01-19T16:37:39.741Z,0.05
2019-01-19T16:40:28.571Z,-0.05
2019-01-19T16:43:21.066Z,0.15
2019-01-19T16:46:13.222Z,0.18
2019-01-19T16:49:12.820Z,0.15
2019-01-19T16:52:23.202Z,0.19
2019-01-19T16:55:16.830Z,0.13
2019-01-19T16:58:15.042Z,0.09
2019-01-19T17:01:23.394Z,0.07
2019-01-19T17:04:29.950Z,0.04
2019-01-19T17:07:15.504Z,0.06
2019-01-19T17:10:09.476Z,0.00
2019-01-19T17:13:15.387Z,0.04
2019-01-19T17:15:57.180Z,-0.15
2019-01-19T17:18:54.336Z,-0.09
2019-01-19T17:22:19.160Z,-0.06
2019-01-19T17:25:26.792Z,-0.09
2019-01-19T17:28:17.195Z,-0.13
2019-01-19T17:31:39.435Z,-0.13
2019-01-19T17:35:07.344Z,-0.15
2019-01-19T17:38:08.876Z,-0.09
2019-01-19T17:41:07.148Z,-0.08
2019-01-19T17:44:04.880Z,-0.11
2019-01-19T17:46:51.612Z,-0.09
2019-01-19T17:49:49.357Z,-0.09
2019-01-19T17:52:56.139Z,-0.10
2019-01-19T17:55:47.213Z,-0.13
2019-01-19T17:58:59.819Z,-0.03
2019-01-19T18:01:53.298Z,0.10
2019-01-19T18:04:39.224Z,0.00
2019-01-19T18:07:23.543Z,-0.11
2019-01-19T18:10:36.023Z,-0.14
2019-01-19T18:13:28.502Z,-0.24
2019-01-19T18:16:36.608Z,-0.29
2019-01-19T18:19:41.171Z,-0.37
2019-01-19T18:22:54.344Z,-0.31
2019-01-19T18:25:30.627Z,-0.30
2019-01-19T18:28:55.436Z,-0.27
2019-01-19T18:31:54.052Z,-0.19
2019-01-19T18:35:12.955Z,-0.22
2019-01-19T18:38:17.602Z,-0.13
2019-01-19T18:41:36.327Z,-0.29
2019-01-19T18:45:00.475Z,-0.34
2019-01-19T18:48:14.180Z,-0.29
2019-01-19T18:51:22.722Z,-0.22
2019-01-19T18:54:27.645Z,-0.25
2019-01-19T18:57:52.070Z,-0.27
2019-01-19T19:00:54.462Z,-0.30
2019-01-19T19:04:12.936Z,-0.28
2019-01-19T19:07:25.461Z,-0.24
2019-01-19T19:10:06.296Z,-0.28
2019-01-19T19:13:00.386Z,-0.33
2019-01-19T19:16:07.501Z,-0.42
2019-01-19T19:19:08.618Z,-0.43
2019-01-19T19:22:21.098Z,-0.42
2019-01-19T19:25:36.308Z,-0.36
2019-01-19T19:28:38.477Z,-0.33
2019-01-19T19:31:35.840Z,-0.33
2019-01-19T19:34:35.961Z,-0.35
2019-01-19T19:37:54.650Z,-0.35
2019-01-19T19:40:44.880Z,-0.24
2019-01-19T19:43:37.908Z,-0.26
2019-01-19T19:46:47.525Z,-0.33
2019-01-19T19:49:52.498Z,-0.25
2019-01-19T19:52:27.770Z,-0.21
2019-01-19T19:54:50.832Z,-0.21
2019-01-19T19:57:19.379Z,-0.19
2019-01-19T19:59:47.804Z,-0.21
2019-01-19T20:02:16.069Z,-0.18
2019-01-19T20:04:44.138Z,-0.24
2019-01-19T20:07:12.453Z,-0.26
2019-01-19T20:09:41.059Z,0.16
2019-01-19T20:12:09.557Z,1.69
2019-01-19T20:14:37.746Z,2.09
2019-01-19T20:17:07.413Z,2.85
2019-01-19T20:19:35.591Z,3.42
2019-01-19T20:22:04.031Z,2.62
2019-01-19T20:24:32.327Z,2.22
2019-01-19T20:27:00.587Z,1.91
2019-01-19T20:29:28.797Z,1.42
2019-01-19T20:31:56.976Z,1.01
2019-01-19T20:34:24.990Z,0.89
2019-01-19T20:36:56.257Z,0.75
2019-01-19T20:39:24.856Z,0.63
2019-01-19T20:41:55.677Z,0.53
2019-01-19T20:44:24.033Z,0.34
2019-01-19T20:46:52.290Z,0.26
2019-01-19T20:49:20.259Z,0.22
2019-01-19T20:51:48.576Z,0.22
2019-01-19T20:54:16.754Z,0.20
2019-01-19T20:56:45.937Z,0.08
2019-01-19T20:59:13.939Z,0.09
2019-01-19T21:01:45.232Z,0.01
2019-01-19T21:04:15.917Z,-0.05
2019-01-19T21:06:43.839Z,-0.09
2019-01-19T21:09:11.866Z,0.00
2019-01-19T21:11:40.198Z,0.00
2019-01-19T21:14:08.628Z,-0.03
2019-01-19T21:16:36.639Z,-0.21
2019-01-19T21:19:04.652Z,-0.26
2019-01-19T21:21:33.240Z,-0.30
2019-01-19T21:24:01.602Z,-0.36
2019-01-19T21:26:31.621Z,-0.40
2019-01-19T21:28:59.717Z,-0.36
2019-01-19T21:31:28.042Z,-0.36
2019-01-19T21:34:00.040Z,-0.32
2019-01-19T21:36:31.205Z,-0.37
2019-01-19T21:39:03.718Z,-0.41
2019-01-19T21:41:33.254Z,-0.38
2019-01-19T21:44:01.906Z,-0.36
2019-01-19T21:46:30.266Z,-0.36
2019-01-19T21:48:59.609Z,-0.35
2019-01-19T21:51:27.721Z,-0.32
2019-01-19T21:53:56.041Z,-0.30
2019-01-19T21:56:24.056Z,-0.40
2019-01-19T21:58:52.348Z,-0.46
2019-01-19T22:01:20.290Z,-0.47
2019-01-19T22:03:48.314Z,-0.42
2019-01-19T22:06:16.250Z,-0.38
2019-01-19T22:08:44.236Z,-0.35
2019-01-19T22:11:12.386Z,-0.39
2019-01-19T22:13:40.619Z,-0.36
2019-01-19T22:16:08.891Z,-0.32
2019-01-19T22:18:37.010Z,-0.30
2019-01-19T22:21:05.441Z,-0.37
2019-01-19T22:23:33.820Z,-0.37
2019-01-19T22:26:02.048Z,-0.33
2019-01-19T22:28:30.236Z,-0.25
2019-01-19T22:30:58.354Z,-0.30
2019-01-19T22:33:26.748Z,-0.43
2019-01-19T22:35:55.409Z,-0.39
2019-01-19T22:38:23.670Z,-0.35
2019-01-19T22:40:53.743Z,-0.28
2019-01-19T22:43:29.183Z,-0.24
2019-01-19T22:45:57.564Z,-0.22
2019-01-19T22:48:27.031Z,-0.28
2019-01-19T22:50:55.024Z,-0.16
2019-01-19T22:53:23.140Z,-0.22
2019-01-19T22:55:51.300Z,-0.26
2019-01-19T22:58:19.476Z,-0.26
2019-01-19T23:01:18.933Z,-0.19
2019-01-19T23:03:47.251Z,-0.16
2019-01-19T23:06:15.534Z,-0.19
2019-01-19T23:08:43.476Z,-0.17
2019-01-19T23:11:11.620Z,-0.15
2019-01-19T23:13:39.684Z,-0.22
2019-01-19T23:16:07.876Z,-0.26
2019-01-19T23:18:35.999Z,-0.26
2019-01-19T23:21:04.198Z,-0.26
2019-01-19T23:23:32.080Z,-0.26
2019-01-19T23:26:01.927Z,-0.35
2019-01-19T23:28:30.427Z,-0.42
2019-01-19T23:30:58.757Z,-0.45
2019-01-19T23:33:27.034Z,-0.42
2019-01-19T23:35:55.141Z,-0.42
2019-01-19T23:38:23.487Z,-0.45
2019-01-19T23:40:51.436Z,-0.52
2019-01-19T23:43:19.825Z,-0.54
2019-01-19T23:45:48.122Z,-0.54
2019-01-19T23:48:16.162Z,-0.50
2019-01-19T23:50:44.245Z,-0.53
2019-01-19T23:53:12.324Z,-0.48
2019-01-19T23:55:42.679Z,-0.56
2019-01-19T23:58:10.848Z,-0.53
